createdAt,value
2023-04-15T00:01:19.647Z,67.74
2023-04-15T00:03:48.781Z,67.66
2023-04-15T00:06:17.092Z,68.02
2023-04-15T00:08:45.291Z,67.86
2023-04-15T00:11:15.451Z,68.35
2023-04-15T00:13:44.057Z,68.64
2023-04-15T00:16:13.201Z,68.31
2023-04-15T00:18:41.327Z,67.93
2023-04-15T00:21:09.613Z,68.23
2023-04-15T00:23:37.793Z,68.12
2023-04-15T00:26:06.146Z,68.36
2023-04-15T00:28:35.677Z,68.59
2023-04-15T00:31:04.929Z,68.42
2023-04-15T00:33:33.374Z,68.67
2023-04-15T00:36:01.675Z,68.75
2023-04-15T00:38:29.864Z,68.81
2023-04-15T00:40:58.269Z,68.56
2023-04-15T00:43:26.724Z,68.51
2023-04-15T00:45:57.818Z,68.74
2023-04-15T00:48:27.167Z,68.79
2023-04-15T00:50:55.626Z,68.36
2023-04-15T00:53:24.487Z,68.22
2023-04-15T00:55:52.678Z,68.45
2023-04-15T00:58:21.908Z,68.55
2023-04-15T01:00:54.407Z,68.57
2023-04-15T01:03:24.446Z,68.40
2023-04-15T01:05:58.465Z,69.06
2023-04-15T01:08:29.042Z,68.95
2023-04-15T01:10:59.693Z,69.77
2023-04-15T01:13:28.145Z,69.24
2023-04-15T01:15:58.577Z,69.59
2023-04-15T01:18:28.705Z,70.08
2023-04-15T01:20:57.316Z,70.67
2023-04-15T01:23:26.340Z,71.38
2023-04-15T01:25:57.387Z,71.84
2023-04-15T01:28:25.760Z,71.64
2023-04-15T01:31:08.765Z,71.29
2023-04-15T01:33:39.279Z,71.47
2023-04-15T01:36:10.119Z,71.71
2023-04-15T01:38:39.094Z,70.61
2023-04-15T01:41:08.665Z,70.75
2023-04-15T01:43:37.796Z,70.55
2023-04-15T01:46:06.556Z,70.37
2023-04-15T01:48:34.857Z,70.12
2023-04-15T01:51:05.969Z,69.88
2023-04-15T01:53:34.362Z,70.52
2023-04-15T01:56:03.728Z,70.89
2023-04-15T01:58:33.218Z,70.64
2023-04-15T02:01:03.112Z,70.49
2023-04-15T02:03:33.623Z,70.06
2023-04-15T02:06:01.901Z,69.87
2023-04-15T02:08:30.436Z,69.97
2023-04-15T02:10:58.614Z,70.09
2023-04-15T02:13:27.080Z,70.47
2023-04-15T02:15:59.331Z,70.68
2023-04-15T02:18:27.576Z,70.40
2023-04-15T02:20:56.709Z,70.46
2023-04-15T02:23:25.262Z,70.51
2023-04-15T02:25:54.367Z,71.03
2023-04-15T02:28:25.475Z,71.13
2023-04-15T02:30:54.735Z,70.90
2023-04-15T02:33:24.822Z,70.83
2023-04-15T02:35:53.413Z,70.26
2023-04-15T02:38:21.729Z,69.91
2023-04-15T02:40:50.432Z,70.00
2023-04-15T02:43:18.872Z,69.93
2023-04-15T02:45:48.173Z,69.64
2023-04-15T02:48:18.959Z,69.48
2023-04-15T02:50:49.063Z,69.67
2023-04-15T02:53:18.539Z,69.43
2023-04-15T02:55:46.811Z,68.85
2023-04-15T02:58:15.008Z,69.18
2023-04-15T03:00:43.164Z,69.02
2023-04-15T03:03:11.548Z,69.24
2023-04-15T03:05:40.223Z,68.78
2023-04-15T03:08:10.717Z,68.51
2023-04-15T03:10:38.939Z,68.43
2023-04-15T03:13:07.193Z,68.49
2023-04-15T03:15:35.367Z,68.56
2023-04-15T03:18:03.626Z,68.64
2023-04-15T03:20:32.148Z,68.32
2023-04-15T03:23:00.646Z,68.61
2023-04-15T03:25:31.551Z,68.75
2023-04-15T03:28:01.869Z,68.75
2023-04-15T03:30:30.171Z,68.60
2023-04-15T03:32:58.488Z,68.89
2023-04-15T03:35:27.215Z,68.79
2023-04-15T03:37:55.669Z,68.81
2023-04-15T03:40:23.905Z,69.13
2023-04-15T03:42:53.404Z,68.79
2023-04-15T03:45:21.614Z,68.51
2023-04-15T03:47:50.270Z,68.50
2023-04-15T03:50:18.591Z,68.75
2023-04-15T03:52:46.701Z,68.54
2023-04-15T03:55:15.778Z,68.50
2023-04-15T03:57:43.857Z,68.42
2023-04-15T04:00:13.939Z,68.64
2023-04-15T04:02:42.264Z,68.49
2023-04-15T04:05:12.212Z,68.50
2023-04-15T04:07:40.523Z,68.20
2023-04-15T04:10:09.930Z,68.18
2023-04-15T04:12:38.180Z,68.17
2023-04-15T04:15:10.586Z,68.21
2023-04-15T04:17:40.101Z,67.99
2023-04-15T04:20:10.020Z,68.29
2023-04-15T04:22:40.188Z,68.71
2023-04-15T04:25:10.140Z,68.55
2023-04-15T04:27:38.340Z,68.95
2023-04-15T04:30:08.178Z,69.00
2023-04-15T04:32:36.496Z,69.51
2023-04-15T04:35:07.183Z,70.01
2023-04-15T04:37:35.319Z,69.60
2023-04-15T04:40:03.692Z,69.93
2023-04-15T04:42:31.838Z,69.91
2023-04-15T04:45:00.207Z,70.39
2023-04-15T04:47:28.617Z,70.69
2023-04-15T04:49:58.316Z,70.49
2023-04-15T04:52:27.821Z,70.96
2023-04-15T04:54:55.965Z,70.93
2023-04-15T04:57:24.256Z,70.48
2023-04-15T04:59:52.565Z,70.59
2023-04-15T05:02:20.819Z,70.90
2023-04-15T05:04:50.138Z,70.77
2023-04-15T05:07:18.492Z,70.91
2023-04-15T05:09:47.972Z,71.17
2023-04-15T05:12:16.090Z,72.01
2023-04-15T05:14:44.248Z,71.89
2023-04-15T05:17:12.490Z,72.28
2023-04-15T05:19:40.618Z,71.95
2023-04-15T05:22:09.438Z,71.99
2023-04-15T05:24:37.639Z,71.99
2023-04-15T05:27:08.724Z,71.64
2023-04-15T05:29:36.857Z,71.79
2023-04-15T05:32:05.171Z,71.98
2023-04-15T05:34:33.503Z,72.33
2023-04-15T05:37:04.101Z,72.26
2023-04-15T05:39:32.818Z,71.54
2023-04-15T05:42:01.301Z,70.31
2023-04-15T05:44:31.038Z,70.06
2023-04-15T05:46:59.336Z,69.35
2023-04-15T05:49:27.501Z,68.93
2023-04-15T05:51:56.160Z,67.79
2023-04-15T05:54:24.481Z,66.54
2023-04-15T05:56:52.680Z,64.91
2023-04-15T05:59:20.851Z,64.21
2023-04-15T06:01:52.100Z,64.19
2023-04-15T06:04:21.854Z,64.41
2023-04-15T06:06:50.223Z,65.25
2023-04-15T06:09:18.352Z,65.34
2023-04-15T06:11:46.490Z,65.45
2023-04-15T06:14:14.584Z,65.45
2023-04-15T06:16:42.700Z,64.94
2023-04-15T06:19:12.446Z,64.95
2023-04-15T06:21:40.765Z,65.77
2023-04-15T06:24:09.213Z,65.61
2023-04-15T06:26:37.326Z,64.58
2023-04-15T06:29:05.775Z,64.98
2023-04-15T06:31:34.007Z,65.73
2023-04-15T06:34:02.405Z,65.87
2023-04-15T06:36:32.425Z,65.99
2023-04-15T06:39:01.604Z,66.37
2023-04-15T06:41:29.931Z,66.41
2023-04-15T06:43:58.100Z,66.04
2023-04-15T06:46:27.760Z,66.31
2023-04-15T06:48:58.298Z,66.20
2023-04-15T06:51:27.034Z,66.54
2023-04-15T06:53:57.207Z,67.03
2023-04-15T06:56:25.484Z,66.99
2023-04-15T06:58:53.774Z,66.93
2023-04-15T07:01:22.563Z,66.90
2023-04-15T07:03:50.870Z,66.98
2023-04-15T07:06:19.903Z,67.31
2023-04-15T07:08:48.147Z,67.30
2023-04-15T07:11:17.727Z,66.82
2023-04-15T07:13:45.917Z,66.61
2023-04-15T07:16:14.089Z,66.40
2023-04-15T07:18:42.328Z,65.41
2023-04-15T07:21:10.792Z,65.64
2023-04-15T07:23:38.928Z,64.44
2023-04-15T07:26:07.432Z,64.53
2023-04-15T07:28:36.915Z,63.93
2023-04-15T07:31:05.739Z,63.67
2023-04-15T07:33:33.897Z,64.82
2023-04-15T07:36:02.723Z,64.74
2023-04-15T07:38:31.003Z,63.94
2023-04-15T07:40:59.124Z,63.99
2023-04-15T07:43:27.183Z,62.86
2023-04-15T07:45:57.060Z,61.88
2023-04-15T07:48:25.275Z,62.13
2023-04-15T07:50:53.634Z,61.58
2023-04-15T07:53:22.157Z,61.07
2023-04-15T07:55:50.708Z,59.88
2023-04-15T07:58:19.166Z,60.25
2023-04-15T08:00:47.341Z,59.68
2023-04-15T08:03:17.413Z,58.11
2023-04-15T08:05:47.310Z,57.73
2023-04-15T08:08:15.553Z,57.89
2023-04-15T08:10:43.772Z,57.74
2023-04-15T08:13:11.876Z,56.60
2023-04-15T08:15:40.087Z,55.09
2023-04-15T08:18:08.467Z,53.68
2023-04-15T08:20:38.503Z,53.15
2023-04-15T08:23:06.642Z,52.01
2023-04-15T08:25:34.825Z,51.73
2023-04-15T08:28:07.134Z,51.10
2023-04-15T08:30:35.660Z,49.30
2023-04-15T08:33:03.864Z,49.09
2023-04-15T08:35:31.929Z,48.38
2023-04-15T08:38:01.599Z,48.80
2023-04-15T08:40:41.924Z,47.99
2023-04-15T08:47:49.968Z,48.12
2023-04-15T08:50:19.255Z,47.92
2023-04-15T08:52:47.395Z,49.19
2023-04-15T08:55:17.632Z,48.13
2023-04-15T08:57:45.725Z,48.26
2023-04-15T09:00:15.470Z,48.19
2023-04-15T09:02:44.750Z,47.23
2023-04-15T09:05:12.894Z,46.72
2023-04-15T09:07:41.296Z,46.49
2023-04-15T09:10:11.269Z,47.76
2023-04-15T09:12:40.941Z,48.15
2023-04-15T09:15:12.748Z,46.70
2023-04-15T09:17:45.013Z,45.43
2023-04-15T09:20:16.257Z,46.87
2023-04-15T09:22:46.889Z,43.81
2023-04-15T09:25:32.800Z,46.86
2023-04-15T09:28:04.480Z,42.70
2023-04-15T09:30:32.701Z,45.37
2023-04-15T09:33:03.170Z,46.53
2023-04-15T09:35:31.517Z,45.78
2023-04-15T09:38:06.299Z,45.59
2023-04-15T09:40:36.404Z,44.36
2023-04-15T09:43:07.600Z,44.04
2023-04-15T09:45:37.191Z,43.29
2023-04-15T09:48:20.820Z,43.86
2023-04-15T09:50:53.969Z,40.88
2023-04-15T09:56:15.394Z,40.60
2023-04-15T09:58:46.784Z,41.86
2023-04-15T10:01:15.055Z,42.19
2023-04-15T10:03:44.809Z,42.58
2023-04-15T10:06:13.386Z,40.70
2023-04-15T10:08:42.758Z,37.28
2023-04-15T10:11:11.976Z,38.38
2023-04-15T10:13:40.673Z,41.28
2023-04-15T10:16:15.374Z,38.81
2023-04-15T10:18:46.735Z,39.03
2023-04-15T10:21:18.552Z,41.29
2023-04-15T10:23:47.260Z,39.01
2023-04-15T10:26:17.584Z,41.00
2023-04-15T10:28:47.139Z,41.47
2023-04-15T10:31:18.504Z,40.66
2023-04-15T10:33:48.544Z,41.77
2023-04-15T10:36:17.507Z,40.99
2023-04-15T10:38:47.217Z,39.96
2023-04-15T10:41:21.249Z,42.78
2023-04-15T10:43:54.871Z,42.06
2023-04-15T10:46:36.954Z,38.61
2023-04-15T10:49:11.002Z,40.76
2023-04-15T10:51:42.631Z,41.21
2023-04-15T10:54:15.639Z,37.99
2023-04-15T10:56:44.741Z,39.63
2023-04-15T10:59:13.168Z,38.98
2023-04-15T11:02:00.176Z,39.97
2023-04-15T11:04:56.056Z,39.34
2023-04-15T11:07:49.718Z,40.33
2023-04-15T11:10:53.843Z,38.10
2023-04-15T11:13:34.247Z,39.29
2023-04-15T11:16:04.276Z,36.73
2023-04-15T11:18:36.479Z,39.66
2023-04-15T11:21:07.281Z,38.90
2023-04-15T11:23:39.431Z,40.49
2023-04-15T11:26:13.194Z,40.68
2023-04-15T11:28:43.648Z,42.88
2023-04-15T11:31:13.976Z,42.74
2023-04-15T11:33:57.200Z,39.43
2023-04-15T11:36:31.790Z,42.17
2023-04-15T11:39:04.733Z,39.93
2023-04-15T11:41:32.921Z,40.75
2023-04-15T11:44:01.931Z,41.43
2023-04-15T11:46:32.179Z,42.39
2023-04-15T11:49:02.681Z,42.81
2023-04-15T11:51:35.064Z,41.58
2023-04-15T11:54:04.309Z,42.46
2023-04-15T11:56:32.941Z,42.53
2023-04-15T11:59:01.714Z,43.44
2023-04-15T12:01:33.820Z,44.64
2023-04-15T12:04:04.643Z,42.72
2023-04-15T12:06:36.849Z,44.25
2023-04-15T12:09:10.749Z,42.43
2023-04-15T12:11:45.854Z,43.47
2023-04-15T12:14:22.811Z,43.72
2023-04-15T12:16:54.975Z,46.14
2023-04-15T12:19:29.772Z,46.07
2023-04-15T12:22:01.582Z,44.76
2023-04-15T12:24:32.723Z,44.17
2023-04-15T12:27:04.575Z,45.04
2023-04-15T12:29:36.223Z,45.25
2023-04-15T12:32:09.055Z,45.79
2023-04-15T12:34:40.594Z,45.02
2023-04-15T12:37:11.334Z,45.23
2023-04-15T12:39:41.660Z,46.19
2023-04-15T12:42:13.512Z,46.52
2023-04-15T12:44:41.892Z,45.83
2023-04-15T12:47:11.837Z,45.09
2023-04-15T12:49:41.557Z,46.33
2023-04-15T12:52:09.973Z,46.18
2023-04-15T12:54:38.165Z,44.94
2023-04-15T12:57:07.421Z,45.97
2023-04-15T12:59:38.818Z,45.32
2023-04-15T13:02:07.181Z,45.04
2023-04-15T13:04:35.379Z,44.84
2023-04-15T13:07:04.955Z,43.51
2023-04-15T13:09:33.271Z,44.68
2023-04-15T13:12:04.734Z,44.64
2023-04-15T13:14:32.939Z,44.78
2023-04-15T13:17:01.651Z,44.11
2023-04-15T13:19:30.026Z,44.65
2023-04-15T13:21:58.124Z,44.87
2023-04-15T13:24:27.666Z,45.09
2023-04-15T13:26:59.201Z,45.43
2023-04-15T13:29:30.268Z,45.58
2023-04-15T13:31:58.834Z,45.02
2023-04-15T13:34:27.043Z,44.61
2023-04-15T13:36:55.661Z,45.20
2023-04-15T13:39:23.907Z,43.84
2023-04-15T13:41:53.333Z,44.56
2023-04-15T13:44:22.312Z,44.64
2023-04-15T13:46:50.497Z,45.00
2023-04-15T13:49:19.196Z,44.52
2023-04-15T13:51:47.488Z,48.66
2023-04-15T13:54:15.647Z,46.20
2023-04-15T13:56:43.875Z,44.60
2023-04-15T13:59:14.360Z,44.04
2023-04-15T14:01:43.791Z,44.66
2023-04-15T14:04:12.074Z,43.97
2023-04-15T14:06:40.429Z,44.41
2023-04-15T14:09:08.849Z,45.98
2023-04-15T14:11:40.502Z,45.87
2023-04-15T14:14:09.219Z,43.39
2023-04-15T14:16:38.710Z,45.66
2023-04-15T14:19:07.047Z,46.13
2023-04-15T14:21:35.560Z,45.36
2023-04-15T14:24:03.815Z,47.86
2023-04-15T14:26:32.293Z,46.18
2023-04-15T14:29:00.598Z,47.65
2023-04-15T14:31:29.006Z,46.84
2023-04-15T14:33:58.561Z,46.48
2023-04-15T14:36:27.572Z,48.01
2023-04-15T14:38:55.844Z,47.75
2023-04-15T14:41:24.024Z,47.60
2023-04-15T14:43:52.172Z,48.48
2023-04-15T14:46:20.417Z,48.25
2023-04-15T14:48:48.696Z,47.39
2023-04-15T14:51:18.395Z,47.01
2023-04-15T14:53:47.010Z,48.19
2023-04-15T14:56:15.128Z,48.15
2023-04-15T14:58:43.241Z,48.62
2023-04-15T15:01:11.565Z,49.89
2023-04-15T15:03:40.531Z,49.68
2023-04-15T15:06:09.010Z,50.14
2023-04-15T15:08:38.543Z,49.97
2023-04-15T15:11:07.107Z,49.30
2023-04-15T15:13:36.262Z,49.87
2023-04-15T15:16:04.415Z,49.49
2023-04-15T15:18:32.648Z,49.63
2023-04-15T15:21:00.930Z,51.01
2023-04-15T15:23:29.124Z,52.01
2023-04-15T15:26:00.051Z,51.53
2023-04-15T15:28:28.634Z,51.20
2023-04-15T15:30:59.516Z,50.34
2023-04-15T15:33:29.022Z,49.12
2023-04-15T15:35:59.437Z,48.01
2023-04-15T15:38:27.558Z,48.68
2023-04-15T15:40:55.926Z,47.44
2023-04-15T15:43:25.495Z,47.50
2023-04-15T15:45:55.748Z,48.16
2023-04-15T15:48:25.059Z,48.43
2023-04-15T15:50:53.968Z,49.29
2023-04-15T15:53:24.248Z,49.02
2023-04-15T15:55:53.840Z,48.60
2023-04-15T15:58:22.392Z,48.35
2023-04-15T16:00:52.008Z,48.32
2023-04-15T16:03:20.981Z,49.04
2023-04-15T16:05:49.587Z,49.26
2023-04-15T16:08:18.035Z,50.66
2023-04-15T16:10:46.337Z,50.75
2023-04-15T16:13:14.517Z,51.42
2023-04-15T16:15:42.657Z,51.25
2023-04-15T16:18:12.299Z,52.60
2023-04-15T16:20:40.492Z,53.72
2023-04-15T16:23:14.163Z,54.66
2023-04-15T16:25:44.391Z,54.95
2023-04-15T16:28:25.604Z,54.87
2023-04-15T16:30:55.374Z,54.65
2023-04-15T16:33:24.770Z,54.31
2023-04-15T16:35:53.091Z,53.43
2023-04-15T16:38:21.454Z,54.49
2023-04-15T16:40:49.936Z,54.90
2023-04-15T16:43:18.126Z,55.08
2023-04-15T16:45:50.753Z,54.97
2023-04-15T16:48:19.544Z,54.33
2023-04-15T16:50:49.643Z,54.12
2023-04-15T16:53:17.886Z,53.29
2023-04-15T16:55:46.082Z,54.21
2023-04-15T16:58:14.235Z,53.89
2023-04-15T17:00:42.412Z,53.91
2023-04-15T17:03:13.092Z,53.79
2023-04-15T17:05:42.296Z,53.62
2023-04-15T17:08:11.838Z,53.56
2023-04-15T17:10:39.976Z,54.14
2023-04-15T17:13:10.404Z,56.29
2023-04-15T17:15:38.574Z,56.60
2023-04-15T17:18:06.750Z,56.74
2023-04-15T17:20:35.493Z,56.89
2023-04-15T17:23:04.681Z,57.58
2023-04-15T17:25:34.159Z,58.24
2023-04-15T17:28:04.206Z,58.72
2023-04-15T17:30:33.711Z,59.54
2023-04-15T17:33:03.178Z,59.43
2023-04-15T17:35:51.426Z,59.62
2023-04-15T17:38:19.619Z,59.83
2023-04-15T17:40:49.097Z,60.09
2023-04-15T17:43:17.227Z,60.85
2023-04-15T17:45:46.321Z,61.79
2023-04-15T17:48:14.660Z,61.87
2023-04-15T17:50:43.090Z,62.47
2023-04-15T17:53:11.433Z,62.59
2023-04-15T17:55:39.599Z,62.17
2023-04-15T17:58:09.496Z,62.43
2023-04-15T18:00:38.995Z,63.05
2023-04-15T18:03:07.564Z,63.27
2023-04-15T18:05:39.472Z,63.05
2023-04-15T18:08:08.954Z,63.29
2023-04-15T18:10:37.506Z,62.99
2023-04-15T18:13:05.752Z,62.69
2023-04-15T18:15:35.856Z,63.48
2023-04-15T18:18:04.370Z,64.16
2023-04-15T18:20:33.478Z,63.81
2023-04-15T18:23:01.734Z,64.01
2023-04-15T18:25:30.221Z,65.17
2023-04-15T18:27:58.411Z,65.50
2023-04-15T18:30:26.656Z,65.49
2023-04-15T18:32:56.400Z,65.45
2023-04-15T18:35:24.479Z,66.03
2023-04-15T18:37:53.853Z,65.80
2023-04-15T18:40:21.952Z,66.01
2023-04-15T18:42:50.136Z,66.44
2023-04-15T18:45:18.396Z,66.40
2023-04-15T18:47:46.731Z,66.84
2023-04-15T18:50:16.140Z,66.26
2023-04-15T18:52:44.185Z,66.34
2023-04-15T18:55:12.341Z,66.65
2023-04-15T18:57:42.635Z,66.77
2023-04-15T19:00:15.933Z,66.51
2023-04-15T19:02:44.441Z,66.23
2023-04-15T19:05:12.835Z,66.72
2023-04-15T19:07:42.259Z,65.94
2023-04-15T19:10:11.675Z,66.32
2023-04-15T19:12:40.491Z,67.22
2023-04-15T19:15:09.769Z,68.32
2023-04-15T19:17:37.932Z,69.20
2023-04-15T19:20:07.391Z,69.61
2023-04-15T19:22:35.621Z,69.13
2023-04-15T19:25:06.596Z,68.96
2023-04-15T19:27:34.758Z,68.59
2023-04-15T19:30:04.286Z,68.03
2023-04-15T19:32:32.345Z,68.16
2023-04-15T19:35:00.656Z,67.32
2023-04-15T19:37:28.814Z,67.57
2023-04-15T19:39:57.097Z,68.08
2023-04-15T19:42:26.492Z,68.43
2023-04-15T19:44:54.673Z,69.03
2023-04-15T19:47:23.496Z,68.56
2023-04-15T19:49:52.757Z,68.63
2023-04-15T19:52:22.632Z,68.79
2023-04-15T19:54:50.758Z,68.71
2023-04-15T19:57:18.800Z,68.90
2023-04-15T19:59:48.153Z,68.10
2023-04-15T20:02:17.174Z,68.80
2023-04-15T20:04:45.416Z,68.42
2023-04-15T20:07:13.521Z,68.34
2023-04-15T20:09:43.790Z,69.04
2023-04-15T20:12:50.108Z,68.29
2023-04-15T20:15:01.645Z,68.31
2023-04-15T20:17:34.088Z,68.17
2023-04-15T20:20:02.906Z,68.80
2023-04-15T20:22:30.996Z,68.75
2023-04-15T20:24:59.320Z,68.97
2023-04-15T20:27:27.465Z,68.32
2023-04-15T20:29:55.700Z,68.83
2023-04-15T20:32:25.275Z,68.39
2023-04-15T20:34:53.399Z,68.42
2023-04-15T20:37:21.525Z,69.31
2023-04-15T20:39:49.685Z,69.43
2023-04-15T20:42:19.561Z,69.04
2023-04-15T20:44:47.671Z,69.12
2023-04-15T20:47:16.028Z,69.20
2023-04-15T20:49:47.393Z,69.51
2023-04-15T20:52:15.755Z,69.66
2023-04-15T20:54:43.844Z,69.47
2023-04-15T20:57:12.026Z,69.24
2023-04-15T20:59:40.063Z,69.17
2023-04-15T21:02:08.604Z,69.44
2023-04-15T21:04:37.955Z,69.32
2023-04-15T21:07:07.549Z,69.18
2023-04-15T21:09:35.826Z,69.35
2023-04-15T21:12:04.007Z,68.25
2023-04-15T21:14:32.428Z,68.73
2023-04-15T21:17:03.724Z,67.94
2023-04-15T21:19:31.835Z,68.43
2023-04-15T21:21:59.907Z,68.47
2023-04-15T21:24:32.146Z,68.65
2023-04-15T21:27:02.102Z,68.40
2023-04-15T21:29:30.260Z,68.98
2023-04-15T21:31:58.383Z,69.46
2023-04-15T21:34:26.676Z,69.50
2023-04-15T21:36:54.745Z,69.00
2023-04-15T21:39:25.003Z,68.69
2023-04-15T21:41:54.638Z,68.16
2023-04-15T21:44:22.806Z,67.99
2023-04-15T21:46:52.940Z,67.54
2023-04-15T21:49:21.597Z,67.76
2023-04-15T21:51:50.703Z,68.52
2023-04-15T21:54:18.806Z,68.37
2023-04-15T21:56:49.659Z,68.41
2023-04-15T21:59:19.084Z,69.18
2023-04-15T22:01:47.540Z,69.30
2023-04-15T22:04:16.327Z,70.56
2023-04-15T22:06:44.482Z,70.42
2023-04-15T22:09:14.400Z,70.49
2023-04-15T22:11:42.693Z,69.99
2023-04-15T22:14:11.243Z,69.11
2023-04-15T22:16:41.162Z,70.33
2023-04-15T22:19:09.720Z,69.88
2023-04-15T22:21:37.780Z,69.63
2023-04-15T22:24:38.238Z,69.53
2023-04-15T22:26:55.803Z,70.00
2023-04-15T22:29:24.189Z,69.87
2023-04-15T22:31:54.703Z,70.71
2023-04-15T22:34:23.925Z,70.36
2023-04-15T22:36:53.404Z,70.31
2023-04-15T22:39:21.902Z,70.23
2023-04-15T22:41:50.540Z,70.77
2023-04-15T22:44:18.637Z,70.36
2023-04-15T22:46:46.751Z,70.38
2023-04-15T22:49:16.239Z,70.40
2023-04-15T22:51:44.958Z,70.43
2023-04-15T22:54:13.133Z,70.99
2023-04-15T22:56:41.912Z,70.55
2023-04-15T22:59:10.208Z,70.03
2023-04-15T23:01:38.949Z,70.42
2023-04-15T23:04:07.647Z,70.76
2023-04-15T23:06:52.381Z,71.10
2023-04-15T23:09:20.980Z,70.49
2023-04-15T23:11:49.230Z,70.50
2023-04-15T23:14:17.315Z,70.96
2023-04-15T23:16:45.633Z,71.51
2023-04-15T23:19:13.744Z,71.82
2023-04-15T23:21:41.818Z,71.58
2023-04-15T23:24:12.410Z,71.77
2023-04-15T23:26:40.771Z,71.92
2023-04-15T23:29:09.454Z,72.95
2023-04-15T23:31:37.798Z,73.67
2023-04-15T23:34:06.430Z,73.36
2023-04-15T23:36:34.649Z,73.72
2023-04-15T23:39:02.753Z,74.68
2023-04-15T23:41:32.292Z,75.08
2023-04-15T23:44:00.408Z,75.97
2023-04-15T23:46:28.600Z,76.93
2023-04-15T23:48:56.704Z,77.43
2023-04-15T23:51:24.748Z,77.44
2023-04-15T23:53:53.059Z,78.05
2023-04-15T23:56:21.743Z,77.97
2023-04-15T23:58:51.593Z,78.09
